Time;durP1;ratioP1;P1;durP2;ratioP2;P2;SDS_P1;SDS_P2;PMS_P1;PMS_P2;Temp;Humidity;BMP_temperature;BMP_pressure;BME280_temperature;BME280_humidity;BME280_pressure;Samples;Min_cycle;Max_cycle;Signal;HPM_P1;HPM_P2
2021/11/18 00:00:25;;;;;;;7.05;6.85;;;6.00;99.90;;;;;;4178613;28;20079;-46
2021/11/18 00:02:27;;;;;;;6.57;6.38;;;6.00;99.90;;;;;;4177440;28;20040;-46
2021/11/18 00:04:30;;;;;;;6.50;6.00;;;6.10;99.90;;;;;;4177299;28;20116;-46
2021/11/18 00:06:32;;;;;;;6.43;5.88;;;6.20;99.90;;;;;;4173805;28;20488;-46
2021/11/18 00:08:34;;;;;;;6.55;6.10;;;6.10;99.90;;;;;;4176679;28;20044;-47
2021/11/18 00:10:44;;;;;;;6.30;6.03;;;6.10;99.90;;;;;;4173859;28;20048;-46
2021/11/18 00:12:46;;;;;;;5.47;5.18;;;6.10;99.90;;;;;;4175439;28;20029;-47
2021/11/18 00:14:48;;;;;;;6.38;5.97;;;6.00;99.90;;;;;;4174855;28;20064;-46
2021/11/18 00:16:50;;;;;;;6.38;6.18;;;6.00;99.90;;;;;;4178475;28;20136;-45
2021/11/18 00:18:53;;;;;;;6.63;6.43;;;6.10;99.90;;;;;;4174316;28;20124;-45
2021/11/18 00:20:58;;;;;;;6.60;6.40;;;6.10;99.90;;;;;;4179099;28;20045;-47
2021/11/18 00:23:00;;;;;;;6.00;5.80;;;6.20;99.90;;;;;;4175872;28;20091;-47
2021/11/18 00:25:03;;;;;;;6.03;5.93;;;6.20;99.90;;;;;;4178927;28;20168;-46
2021/11/18 00:27:05;;;;;;;6.55;6.25;;;6.20;99.90;;;;;;4176519;28;20123;-47
2021/11/18 00:29:08;;;;;;;6.70;6.10;;;6.20;99.90;;;;;;4165330;28;20037;-46
2021/11/18 00:31:14;;;;;;;6.43;6.32;;;6.20;99.90;;;;;;4174634;28;20041;-47
2021/11/18 00:33:16;;;;;;;5.88;5.68;;;6.20;99.90;;;;;;4179515;28;20473;-49
2021/11/18 00:35:22;;;;;;;7.40;6.80;;;6.20;99.90;;;;;;4174483;28;20037;-46
2021/11/18 00:37:24;;;;;;;6.70;6.40;;;6.20;99.90;;;;;;4175561;28;20120;-46
2021/11/18 00:39:26;;;;;;;6.07;5.85;;;6.20;99.90;;;;;;4175656;28;20065;-46
2021/11/18 00:41:28;;;;;;;5.60;5.32;;;6.10;99.90;;;;;;4178878;28;20048;-46
2021/11/18 00:43:31;;;;;;;7.45;6.47;;;6.10;99.90;;;;;;4176937;28;20385;-46
2021/11/18 00:45:33;;;;;;;7.60;7.28;;;6.10;99.90;;;;;;4163002;28;20056;-46
2021/11/18 00:47:36;;;;;;;9.95;9.38;;;6.10;99.90;;;;;;4177114;28;20123;-47
2021/11/18 00:49:38;;;;;;;9.38;8.63;;;6.00;99.90;;;;;;4178601;28;20503;-46
2021/11/18 00:51:41;;;;;;;7.43;7.15;;;5.90;99.90;;;;;;4175440;28;20470;-48
2021/11/18 00:53:49;;;;;;;8.75;8.25;;;6.00;99.90;;;;;;4178556;28;20688;-47
2021/11/18 00:55:51;;;;;;;7.78;7.30;;;5.90;99.90;;;;;;4177049;28;20071;-46
2021/11/18 00:57:53;;;;;;;;;;;5.90;99.90;;;;;;4166135;28;20056;-46
2021/11/18 00:59:55;;;;;;;7.45;6.88;;;5.80;99.90;;;;;;4175165;28;19964;-45
2021/11/18 01:01:57;;;;;;;9.02;8.20;;;5.80;99.90;;;;;;4178267;28;20120;-48
2021/11/18 01:04:00;;;;;;;7.13;6.85;;;5.80;99.90;;;;;;4172291;28;20033;-47
2021/11/18 01:06:02;;;;;;;8.23;7.70;;;5.70;99.90;;;;;;4163574;28;20048;-47
2021/11/18 01:08:06;;;;;;;8.75;8.32;;;5.80;99.90;;;;;;4178000;28;20048;-46
2021/11/18 01:10:10;;;;;;;8.32;8.02;;;5.70;99.90;;;;;;4176736;28;20114;-46
2021/11/18 01:12:12;;;;;;;7.93;7.63;;;5.70;99.90;;;;;;4176085;28;20167;-46
2021/11/18 01:14:18;;;;;;;7.97;7.55;;;5.70;99.90;;;;;;4165372;28;20870;-47
2021/11/18 01:16:24;;;;;;;8.43;8.23;;;5.70;99.90;;;;;;4176472;28;20417;-46
2021/11/18 01:18:26;;;;;;;9.15;8.65;;;5.60;99.90;;;;;;4174911;28;20079;-46
2021/11/18 01:20:29;;;;;;;9.80;9.25;;;5.50;99.90;;;;;;4170193;28;20087;-50
2021/11/18 01:22:31;;;;;;;11.43;10.95;;;5.50;99.90;;;;;;4168303;28;20369;-46
2021/11/18 01:24:38;;;;;;;14.65;13.57;;;5.40;99.90;;;;;;4178439;28;20048;-45
2021/11/18 01:26:40;;;;;;;15.05;14.25;;;5.40;99.90;;;;;;4176449;28;20625;-48
2021/11/18 01:28:44;;;;;;;13.75;12.73;;;5.30;99.90;;;;;;4171059;28;20049;-46
2021/11/18 01:30:46;;;;;;;13.27;12.52;;;5.30;99.90;;;;;;4168851;28;20061;-46
2021/11/18 01:32:49;;;;;;;14.90;14.00;;;5.30;99.90;;;;;;4177664;28;20068;-49
2021/11/18 01:34:51;;;;;;;13.48;12.95;;;5.30;99.90;;;;;;4174131;28;20050;-46
2021/11/18 01:36:54;;;;;;;14.57;14.15;;;5.30;99.90;;;;;;4178939;28;20500;-46
2021/11/18 01:38:56;;;;;;;15.65;14.85;;;5.30;99.90;;;;;;4176032;28;20037;-47
2021/11/18 01:41:02;;;;;;;13.73;12.95;;;5.30;99.90;;;;;;4176691;28;20045;-48
2021/11/18 01:43:07;;;;;;;13.60;13.18;;;5.40;99.90;;;;;;4168463;28;20072;-47
2021/11/18 01:45:12;;;;;;;11.88;11.48;;;5.50;99.90;;;;;;4168859;28;20478;-49
2021/11/18 01:47:15;;;;;;;10.82;10.52;;;5.50;99.90;;;;;;4168767;28;20573;-47
2021/11/18 01:49:17;;;;;;;11.23;10.52;;;5.60;99.90;;;;;;4177834;28;20496;-46
2021/11/18 01:51:23;;;;;;;9.30;9.07;;;5.60;99.90;;;;;;4174782;28;20056;-47
2021/11/18 01:53:36;;;;;;;9.27;8.45;;;5.50;99.90;;;;;;4178537;28;20077;-46
2021/11/18 01:55:39;;;;;;;;;;;5.50;99.90;;;;;;4171745;28;20547;-49
2021/11/18 01:57:41;;;;;;;7.63;6.95;;;5.50;99.90;;;;;;4169363;28;19924;-48
2021/11/18 01:59:46;;;;;;;7.80;7.38;;;5.50;99.90;;;;;;4172273;28;20456;-49
2021/11/18 02:01:51;;;;;;;6.53;6.43;;;5.70;99.90;;;;;;4179021;28;20045;-47
2021/11/18 02:03:57;;;;;;;6.70;6.53;;;5.70;99.90;;;;;;4333064;22;20037;-84
2021/11/18 02:09:40;;;;;;;6.20;6.00;;;5.80;99.90;;;;;;4176685;28;20567;-84
2021/11/18 02:12:06;;;;;;;6.78;6.68;;;5.80;99.90;;;;;;4106819;28;20047;-85
2021/11/18 02:14:52;;;;;;;7.40;6.82;;;5.80;99.90;;;;;;4092690;29;20683;-85
2021/11/18 02:20:21;;;;;;;7.18;6.97;;;5.80;99.90;;;;;;4037303;29;20413;-85
2021/11/18 02:23:06;;;;;;;7.00;6.45;;;5.80;99.90;;;;;;4038490;29;20518;-85
2021/11/18 02:25:41;;;;;;;7.40;6.95;;;5.70;99.90;;;;;;3977621;29;20051;-86
2021/11/18 02:28:10;;;;;;;6.20;6.10;;;5.60;99.90;;;;;;3952319;30;20516;-84
2021/11/18 02:30:40;;;;;;;8.80;8.43;;;5.70;99.90;;;;;;3917814;30;20447;-84
2021/11/18 02:33:01;;;;;;;7.55;7.28;;;5.70;99.90;;;;;;3910505;30;20091;-85
2021/11/18 02:35:33;;;;;;;7.50;7.30;;;5.70;99.90;;;;;;3898417;30;20038;-85
2021/11/18 02:37:50;;;;;;;8.00;7.60;;;5.70;99.90;;;;;;4178450;28;20396;-43
2021/11/18 02:39:52;;;;;;;9.50;9.02;;;5.60;99.90;;;;;;4174505;28;20037;-45
2021/11/18 02:41:54;;;;;;;9.88;9.35;;;5.50;99.90;;;;;;4175550;28;20389;-45
2021/11/18 02:43:57;;;;;;;10.88;10.48;;;5.30;99.90;;;;;;4176580;28;20100;-44
2021/11/18 02:45:59;;;;;;;10.05;9.60;;;5.30;99.90;;;;;;4167881;28;20065;-45
2021/11/18 02:48:01;;;;;;;11.20;10.70;;;5.20;99.90;;;;;;4172517;28;20037;-47
2021/11/18 02:50:07;;;;;;;10.82;10.10;;;5.10;99.90;;;;;;4175803;28;20068;-46
2021/11/18 02:52:10;;;;;;;9.27;8.75;;;5.10;99.90;;;;;;4175662;28;20376;-47
2021/11/18 02:54:12;;;;;;;10.90;10.05;;;5.10;99.90;;;;;;4176122;28;20144;-45
2021/11/18 02:56:16;;;;;;;10.77;10.48;;;5.10;99.90;;;;;;4175673;28;20507;-48
2021/11/18 02:58:19;;;;;;;14.23;13.45;;;5.00;99.90;;;;;;4176210;28;20044;-48
2021/11/18 03:00:25;;;;;;;14.68;14.13;;;4.90;99.90;;;;;;4175046;28;20041;-43
2021/11/18 03:02:28;;;;;;;14.18;13.77;;;4.90;99.90;;;;;;4159540;28;20065;-47
2021/11/18 03:04:30;;;;;;;16.67;15.85;;;4.90;99.90;;;;;;4174143;28;20042;-47
2021/11/18 03:06:33;;;;;;;15.77;15.20;;;4.90;99.90;;;;;;4159963;28;20107;-48
2021/11/18 03:08:35;;;;;;;;;;;4.80;99.90;;;;;;4171950;28;20044;-46
2021/11/18 03:10:38;;;;;;;13.95;13.55;;;4.80;99.90;;;;;;4175692;28;19921;-48
2021/11/18 03:12:40;;;;;;;;;;;4.90;99.90;;;;;;4172311;28;20072;-46
2021/11/18 03:14:42;;;;;;;13.25;12.73;;;5.00;99.90;;;;;;4176015;28;19921;-45
2021/11/18 03:16:44;;;;;;;12.45;12.05;;;5.00;99.90;;;;;;4171763;28;20661;-44
2021/11/18 03:18:46;;;;;;;14.00;13.32;;;5.10;99.90;;;;;;4173361;28;20504;-43
2021/11/18 03:20:49;;;;;;;13.38;12.68;;;5.10;99.90;;;;;;4172710;28;20037;-43
2021/11/18 03:22:52;;;;;;;13.90;13.20;;;5.10;99.90;;;;;;4175404;28;20080;-44
2021/11/18 03:24:55;;;;;;;13.50;12.93;;;5.10;99.90;;;;;;4174439;28;20065;-45
2021/11/18 03:26:57;;;;;;;15.05;13.65;;;5.20;99.90;;;;;;4171410;28;20042;-44
2021/11/18 03:29:00;;;;;;;12.30;11.90;;;5.20;99.90;;;;;;4174753;28;20041;-43
2021/11/18 03:31:05;;;;;;;11.50;11.15;;;5.20;99.90;;;;;;4175224;28;20087;-45
2021/11/18 03:33:12;;;;;;;9.07;8.85;;;5.20;99.90;;;;;;4173210;28;20112;-43
2021/11/18 03:35:15;;;;;;;7.85;7.75;;;5.40;99.90;;;;;;4159239;28;20037;-43
2021/11/18 03:37:17;;;;;;;;;;;5.50;99.90;;;;;;4174921;28;20045;-44
2021/11/18 03:39:20;;;;;;;7.78;7.50;;;5.50;99.90;;;;;;4174284;28;19967;-43
2021/11/18 03:41:25;;;;;;;7.50;7.07;;;5.50;99.90;;;;;;4170173;28;20404;-44
2021/11/18 03:43:27;;;;;;;7.35;7.15;;;5.40;99.90;;;;;;4162296;28;20077;-45
2021/11/18 03:45:30;;;;;;;9.55;9.20;;;5.40;99.90;;;;;;4175250;28;20033;-43
2021/11/18 03:47:32;;;;;;;10.10;9.43;;;5.40;99.90;;;;;;4160316;28;20037;-43
2021/11/18 03:49:34;;;;;;;10.02;9.50;;;5.50;99.90;;;;;;4163328;28;20037;-44
2021/11/18 03:51:37;;;;;;;9.57;8.77;;;5.50;99.90;;;;;;4163132;28;20092;-44
2021/11/18 03:53:39;;;;;;;;;;;5.50;99.90;;;;;;4163048;28;20060;-44
2021/11/18 03:55:41;;;;;;;8.18;8.05;;;5.60;99.90;;;;;;4162258;28;19978;-45
2021/11/18 03:57:43;;;;;;;6.80;6.60;;;5.60;99.90;;;;;;4164957;28;20041;-44
2021/11/18 03:59:48;;;;;;;9.30;9.07;;;5.50;99.90;;;;;;4161041;28;20125;-44
2021/11/18 04:01:51;;;;;;;8.25;8.07;;;5.50;99.90;;;;;;4161743;28;20092;-45
2021/11/18 04:03:54;;;;;;;7.45;7.07;;;5.40;99.90;;;;;;4151435;28;20043;-43
2021/11/18 04:05:57;;;;;;;7.40;7.20;;;5.40;99.90;;;;;;4164467;28;20041;-44
2021/11/18 04:07:59;;;;;;;9.38;8.60;;;5.40;99.90;;;;;;4163021;28;20076;-43
2021/11/18 04:10:02;;;;;;;;;;;5.40;99.90;;;;;;4164391;28;20095;-45
2021/11/18 04:12:05;;;;;;;7.67;7.53;;;5.40;99.90;;;;;;4161650;28;20099;-44
2021/11/18 04:14:09;;;;;;;6.90;6.60;;;5.40;99.90;;;;;;4164860;28;20100;-43
2021/11/18 04:16:11;;;;;;;7.13;6.68;;;5.30;99.90;;;;;;4154834;28;20088;-44
2021/11/18 04:18:14;;;;;;;6.28;6.18;;;5.30;99.90;;;;;;4161006;28;20039;-44
2021/11/18 04:20:16;;;;;;;6.80;6.60;;;5.30;99.90;;;;;;4162532;28;20476;-43
2021/11/18 04:22:18;;;;;;;7.18;6.95;;;5.40;99.90;;;;;;4154557;28;20124;-44
2021/11/18 04:24:27;;;;;;;12.77;12.25;;;5.30;99.90;;;;;;4155661;28;20125;-44
2021/11/18 04:26:30;;;;;;;14.27;13.55;;;5.10;99.90;;;;;;4163382;28;20092;-47
2021/11/18 04:28:33;;;;;;;13.65;13.02;;;4.80;99.90;;;;;;4157238;28;20049;-45
2021/11/18 04:30:57;;;;;;;14.35;14.05;;;4.60;99.90;;;;;;4169122;28;20067;-47
2021/11/18 04:33:00;;;;;;;16.52;16.10;;;4.80;99.90;;;;;;4158448;28;20038;-45
2021/11/18 04:35:03;;;;;;;17.50;16.83;;;4.90;99.90;;;;;;4150880;28;20061;-45
2021/11/18 04:37:06;;;;;;;16.58;15.95;;;4.80;99.90;;;;;;4172773;28;20056;-46
2021/11/18 04:39:08;;;;;;;;;;;4.70;99.90;;;;;;4164159;28;20052;-48
2021/11/18 04:41:11;;;;;;;14.98;14.32;;;4.60;99.90;;;;;;4161369;28;19921;-45
2021/11/18 04:43:14;;;;;;;13.38;12.75;;;4.60;99.90;;;;;;4163010;28;20041;-47
2021/11/18 04:45:19;;;;;;;13.95;12.80;;;4.60;99.90;;;;;;4161841;28;20096;-44
2021/11/18 04:47:22;;;;;;;14.18;13.88;;;4.60;99.90;;;;;;4153029;28;20651;-48
2021/11/18 04:49:24;;;;;;;17.30;16.05;;;4.60;99.90;;;;;;4161123;28;20033;-48
2021/11/18 04:51:26;;;;;;;14.38;14.07;;;4.60;99.90;;;;;;4147229;28;20042;-46
2021/11/18 04:53:29;;;;;;;16.38;15.82;;;4.60;99.90;;;;;;4159972;28;20064;-48
2021/11/18 04:55:32;;;;;;;18.13;17.25;;;4.70;99.90;;;;;;4163705;28;20037;-46
2021/11/18 04:57:34;;;;;;;;;;;4.70;99.90;;;;;;4161593;28;20388;-46
2021/11/18 04:59:37;;;;;;;17.60;17.13;;;4.80;99.90;;;;;;4168408;28;19968;-44
2021/11/18 05:01:39;;;;;;;15.27;14.85;;;4.90;99.90;;;;;;4161035;28;20494;-45
2021/11/18 05:03:42;;;;;;;12.73;12.27;;;5.00;99.90;;;;;;4147034;28;20096;-46
2021/11/18 05:05:45;;;;;;;13.95;13.63;;;5.10;99.90;;;;;;4160682;28;20532;-44
2021/11/18 05:07:48;;;;;;;14.65;14.02;;;5.20;99.90;;;;;;4161635;28;20165;-48
2021/11/18 05:09:50;;;;;;;13.77;13.55;;;5.30;99.90;;;;;;4161267;28;20037;-47
2021/11/18 05:11:52;;;;;;;13.27;12.15;;;5.40;99.90;;;;;;4162235;28;20048;-48
2021/11/18 05:13:55;;;;;;;12.55;11.93;;;5.30;99.90;;;;;;4162049;28;20052;-45
2021/11/18 05:16:00;;;;;;;14.45;13.57;;;5.20;99.90;;;;;;4161768;28;20121;-46
2021/11/18 05:18:04;;;;;;;12.18;11.93;;;5.10;99.90;;;;;;4160156;28;20076;-46
2021/11/18 05:20:07;;;;;;;10.68;9.85;;;5.10;99.90;;;;;;4160189;28;20050;-48
2021/11/18 05:22:09;;;;;;;10.55;9.77;;;5.00;99.90;;;;;;4160914;28;20177;-47
2021/11/18 05:24:11;;;;;;;10.77;10.18;;;5.00;99.90;;;;;;4160492;28;20092;-49
2021/11/18 05:26:16;;;;;;;13.38;12.93;;;4.90;99.90;;;;;;4161575;28;20128;-48
2021/11/18 05:28:18;;;;;;;16.30;15.60;;;4.90;99.90;;;;;;4160291;28;20049;-48
2021/11/18 05:30:24;;;;;;;11.48;10.88;;;5.00;99.90;;;;;;4162880;28;20037;-45
2021/11/18 05:32:27;;;;;;;17.77;16.67;;;4.90;99.90;;;;;;4154007;28;20038;-48
2021/11/18 05:34:29;;;;;;;17.67;17.05;;;4.90;99.90;;;;;;4159061;28;20029;-46
2021/11/18 05:36:31;;;;;;;17.73;16.98;;;4.90;99.90;;;;;;4158479;28;20623;-44
2021/11/18 05:38:33;;;;;;;17.55;16.85;;;4.90;99.90;;;;;;4160223;28;20084;-44
2021/11/18 05:40:37;;;;;;;19.95;19.35;;;4.90;99.90;;;;;;4158835;28;20467;-44
2021/11/18 05:42:40;;;;;;;21.58;20.67;;;4.80;99.90;;;;;;4155071;28;20046;-43
2021/11/18 05:44:42;;;;;;;21.42;20.63;;;4.70;99.90;;;;;;4150957;28;20076;-44
2021/11/18 05:46:44;;;;;;;21.45;20.83;;;4.70;99.90;;;;;;4163133;28;20042;-44
2021/11/18 05:48:46;;;;;;;20.50;19.70;;;4.70;99.90;;;;;;4157201;28;20068;-44
2021/11/18 05:50:55;;;;;;;17.45;16.85;;;4.70;99.90;;;;;;4156176;28;20068;-44
2021/11/18 05:52:58;;;;;;;14.05;13.45;;;4.70;99.90;;;;;;4160366;28;20042;-43
2021/11/18 05:55:00;;;;;;;12.98;12.30;;;4.60;99.90;;;;;;4161263;28;20045;-45
2021/11/18 05:57:02;;;;;;;22.58;21.63;;;4.70;99.90;;;;;;4159788;28;20041;-44
2021/11/18 05:59:04;;;;;;;20.40;19.67;;;4.70;99.90;;;;;;4162920;28;20539;-45
2021/11/18 06:01:07;;;;;;;16.20;15.60;;;4.80;99.90;;;;;;4159706;28;20119;-44
2021/11/18 06:03:09;;;;;;;13.75;13.38;;;4.80;99.90;;;;;;4163088;28;20660;-44
2021/11/18 06:05:12;;;;;;;9.43;9.13;;;5.00;99.90;;;;;;4160040;28;20035;-44
2021/11/18 06:07:15;;;;;;;7.30;7.03;;;5.10;99.90;;;;;;4162620;28;20084;-43
2021/11/18 06:09:17;;;;;;;11.32;11.02;;;5.10;99.90;;;;;;4157661;28;20068;-44
2021/11/18 06:11:19;;;;;;;;;;;5.20;99.90;;;;;;4162853;28;20037;-44
2021/11/18 06:13:21;;;;;;;16.63;16.23;;;5.20;99.90;;;;;;4158300;28;19928;-44
2021/11/18 06:15:24;;;;;;;15.57;15.18;;;5.10;99.90;;;;;;4161880;28;20065;-44
2021/11/18 06:17:26;;;;;;;;;;;5.10;99.90;;;;;;4160469;28;20041;-44
2021/11/18 06:19:28;;;;;;;18.75;18.35;;;5.00;99.90;;;;;;4160694;28;19967;-44
2021/11/18 06:21:33;;;;;;;18.17;17.55;;;5.00;99.90;;;;;;4160336;28;20040;-44
2021/11/18 06:23:35;;;;;;;20.30;18.95;;;5.00;99.90;;;;;;4161187;28;20052;-44
2021/11/18 06:25:38;;;;;;;17.75;17.13;;;5.00;99.90;;;;;;4159257;28;20044;-44
2021/11/18 06:27:43;;;;;;;17.70;16.85;;;5.00;99.90;;;;;;4162014;28;20417;-46
2021/11/18 06:29:45;;;;;;;17.13;16.33;;;5.00;99.90;;;;;;4158009;28;20037;-45
2021/11/18 06:31:53;;;;;;;22.83;21.77;;;5.00;99.90;;;;;;4162880;28;20042;-46
2021/11/18 06:33:57;;;;;;;16.15;15.20;;;5.00;99.90;;;;;;4159635;28;20068;-46
2021/11/18 06:35:59;;;;;;;21.88;21.02;;;5.00;99.90;;;;;;4158847;28;20046;-46
2021/11/18 06:38:09;;;;;;;21.05;20.25;;;4.90;99.90;;;;;;4155452;28;20116;-45
2021/11/18 06:40:12;;;;;;;21.75;20.90;;;5.00;99.90;;;;;;4172173;28;20042;-46
2021/11/18 06:42:15;;;;;;;19.73;19.10;;;4.90;99.90;;;;;;4160186;28;20462;-45
2021/11/18 06:44:17;;;;;;;17.27;16.45;;;5.10;99.90;;;;;;4155336;28;20045;-46
2021/11/18 06:46:19;;;;;;;19.20;18.13;;;5.10;99.90;;;;;;4157091;28;20080;-47
2021/11/18 06:48:23;;;;;;;18.45;17.73;;;5.20;99.90;;;;;;4154088;28;20117;-49
2021/11/18 06:50:25;;;;;;;14.75;14.15;;;5.20;99.90;;;;;;4159949;28;20034;-47
2021/11/18 06:52:28;;;;;;;16.65;15.80;;;5.20;99.90;;;;;;4146804;28;20042;-45
2021/11/18 06:54:31;;;;;;;13.32;12.93;;;5.30;99.90;;;;;;4160077;28;20567;-50
2021/11/18 06:56:33;;;;;;;13.57;12.95;;;5.30;99.90;;;;;;4145631;28;20477;-46
2021/11/18 06:58:35;;;;;;;12.27;11.75;;;5.40;99.90;;;;;;4157112;28;20279;-47
2021/11/18 07:00:37;;;;;;;9.05;8.60;;;5.50;99.90;;;;;;4161539;28;20067;-49
2021/11/18 07:02:40;;;;;;;7.40;7.30;;;5.50;99.90;;;;;;4160903;28;20095;-50
2021/11/18 07:04:45;;;;;;;5.10;5.00;;;5.60;99.90;;;;;;4150304;28;20049;-47
2021/11/18 07:06:47;;;;;;;7.05;6.95;;;5.70;99.90;;;;;;4159410;28;20412;-48
2021/11/18 07:08:49;;;;;;;6.45;6.25;;;5.70;99.90;;;;;;4160190;28;20037;-47
2021/11/18 07:10:51;;;;;;;;;;;5.70;99.90;;;;;;4160323;28;20397;-49
2021/11/18 07:12:54;;;;;;;5.60;5.50;;;5.80;99.90;;;;;;4160145;28;20383;-46
2021/11/18 07:14:58;;;;;;;6.20;6.00;;;5.90;99.90;;;;;;4161710;28;20128;-46
2021/11/18 07:17:02;;;;;;;6.15;5.85;;;5.80;99.90;;;;;;4155529;28;20421;-48
2021/11/18 07:19:05;;;;;;;6.40;6.13;;;6.00;99.90;;;;;;4160422;28;20072;-50
2021/11/18 07:21:08;;;;;;;6.03;5.55;;;6.10;99.90;;;;;;4159476;28;20045;-48
2021/11/18 07:23:11;;;;;;;6.53;6.13;;;6.10;99.90;;;;;;4162680;28;20504;-48
2021/11/18 07:25:18;;;;;;;6.78;6.07;;;6.30;99.90;;;;;;4163320;28;20107;-48
2021/11/18 07:27:20;;;;;;;6.35;6.15;;;6.50;99.90;;;;;;4161694;28;20128;-48
2021/11/18 07:29:23;;;;;;;5.18;5.07;;;6.40;99.90;;;;;;4162487;28;20041;-51
2021/11/18 07:31:25;;;;;;;;;;;6.40;99.90;;;;;;4158641;28;20057;-49
2021/11/18 07:33:29;;;;;;;4.68;4.57;;;6.50;99.90;;;;;;4159231;28;19925;-50
2021/11/18 07:35:31;;;;;;;4.90;4.65;;;6.60;99.90;;;;;;4161478;28;20473;-50
2021/11/18 07:37:34;;;;;;;5.80;5.60;;;6.60;99.90;;;;;;4152313;28;20041;-50
2021/11/18 07:39:36;;;;;;;4.85;4.75;;;6.80;99.90;;;;;;4163837;28;20038;-49
2021/11/18 07:41:38;;;;;;;5.70;5.40;;;6.80;99.90;;;;;;4162586;28;20412;-47
2021/11/18 07:43:43;;;;;;;4.93;4.72;;;6.90;99.90;;;;;;4164447;28;20532;-49
2021/11/18 07:46:08;;;;;;;8.98;6.90;;;6.90;99.90;;;;;;4161280;28;20128;-49
2021/11/18 07:48:10;;;;;;;15.75;13.18;;;7.00;99.90;;;;;;4162926;28;20033;-48
2021/11/18 07:50:14;;;;;;;12.25;10.95;;;6.90;99.90;;;;;;4172855;23;20045;-88
2021/11/18 07:52:59;;;;;;;11.65;10.57;;;6.80;99.90;;;;;;4165880;28;20516;-88
2021/11/18 07:55:32;;;;;;;8.55;7.95;;;6.80;99.90;;;;;;4129765;28;20092;-87
2021/11/18 07:58:12;;;;;;;11.57;10.48;;;6.90;99.90;;;;;;4068612;29;20048;-87
2021/11/18 08:00:41;;;;;;;7.45;6.45;;;7.10;99.90;;;;;;4023983;29;20057;-87
2021/11/18 08:03:10;;;;;;;5.57;5.18;;;7.30;99.90;;;;;;3981437;29;20061;-87
2021/11/18 08:05:25;;;;;;;5.50;5.20;;;7.30;99.90;;;;;;4181248;28;20396;-50
2021/11/18 08:07:27;;;;;;;5.53;5.22;;;7.40;99.90;;;;;;4174530;28;20072;-53
2021/11/18 08:09:30;;;;;;;7.35;6.85;;;7.50;99.90;;;;;;4175746;28;20037;-51
2021/11/18 08:11:35;;;;;;;7.13;6.53;;;7.50;99.90;;;;;;4175309;28;20057;-53
2021/11/18 08:13:37;;;;;;;16.85;11.77;;;7.50;99.90;;;;;;4175895;28;20475;-52
2021/11/18 08:15:39;;;;;;;11.48;10.43;;;7.50;99.90;;;;;;4176421;28;20049;-52
2021/11/18 08:17:42;;;;;;;8.07;7.70;;;7.40;99.90;;;;;;4176187;28;20037;-52
2021/11/18 08:19:44;;;;;;;7.93;7.43;;;7.40;99.90;;;;;;4174116;28;20376;-52
2021/11/18 08:21:48;;;;;;;6.40;6.25;;;7.50;99.90;;;;;;4176808;28;20540;-52
2021/11/18 08:23:51;;;;;;;9.65;8.85;;;7.60;99.90;;;;;;4174484;28;20037;-53
2021/11/18 08:25:53;;;;;;;6.72;6.30;;;7.70;99.90;;;;;;4176973;28;20060;-49
2021/11/18 08:27:55;;;;;;;4.25;4.15;;;7.90;99.90;;;;;;4175493;28;20053;-53
2021/11/18 08:29:57;;;;;;;4.82;4.72;;;8.20;99.90;;;;;;4175684;28;20060;-53
2021/11/18 08:31:59;;;;;;;8.88;7.57;;;8.50;99.90;;;;;;4176769;28;20073;-52
2021/11/18 08:34:02;;;;;;;8.05;7.35;;;8.60;99.90;;;;;;4174954;28;20064;-52
2021/11/18 08:36:04;;;;;;;7.43;7.07;;;8.50;99.90;;;;;;4174420;28;20049;-53
2021/11/18 08:38:11;;;;;;;7.28;6.93;;;8.40;99.90;;;;;;4175764;28;20377;-54
2021/11/18 08:40:16;;;;;;;7.90;7.05;;;8.40;99.90;;;;;;4174987;28;20561;-53
2021/11/18 08:42:23;;;;;;;8.20;7.45;;;8.50;99.90;;;;;;4174382;28;20045;-54
2021/11/18 08:44:27;;;;;;;7.78;7.15;;;8.60;99.90;;;;;;4174706;28;20037;-52
2021/11/18 08:46:30;;;;;;;6.78;6.00;;;8.70;99.90;;;;;;4176150;28;20041;-53
2021/11/18 08:48:32;;;;;;;6.90;6.25;;;8.80;99.90;;;;;;4174531;28;20104;-51
2021/11/18 08:50:52;;;;;;;6.90;6.38;;;8.80;99.90;;;;;;4174511;28;20033;-53
2021/11/18 08:52:55;;;;;;;4.28;4.05;;;9.10;99.90;;;;;;4175092;28;20099;-52
2021/11/18 08:54:59;;;;;;;4.53;4.32;;;9.40;99.90;;;;;;4174777;28;20038;-50
2021/11/18 08:57:02;;;;;;;3.88;3.67;;;9.70;99.90;;;;;;4174529;28;20037;-52
2021/11/18 08:59:07;;;;;;;7.72;7.22;;;9.80;99.90;;;;;;4174409;28;20095;-51
2021/11/18 09:01:17;;;;;;;5.82;5.32;;;9.70;99.90;;;;;;4175653;28;20060;-54
2021/11/18 09:03:29;;;;;;;5.13;4.93;;;9.70;99.90;;;;;;4170964;28;20033;-52
2021/11/18 09:05:32;;;;;;;4.82;4.63;;;9.80;99.90;;;;;;4167213;28;20037;-51
2021/11/18 09:07:34;;;;;;;;;;;10.00;99.90;;;;;;4173400;28;20480;-51
2021/11/18 09:09:36;;;;;;;4.10;3.72;;;10.10;99.90;;;;;;4174334;28;19932;-53
2021/11/18 09:11:38;;;;;;;4.10;4.00;;;10.10;99.90;;;;;;4171552;28;20053;-52
2021/11/18 09:13:41;;;;;;;;;;;10.30;99.90;;;;;;4175956;28;20813;-52
2021/11/18 09:15:44;;;;;;;3.53;3.42;;;10.40;99.90;;;;;;4166774;28;20003;-53
2021/11/18 09:17:46;;;;;;;4.72;4.63;;;10.80;99.90;;;;;;4164213;28;20045;-53
2021/11/18 09:19:48;;;;;;;;;;;11.10;99.90;;;;;;4161900;28;20041;-50
2021/11/18 09:21:52;;;;;;;7.40;7.00;;;11.10;99.90;;;;;;4163170;28;19925;-53
2021/11/18 09:23:59;;;;;;;6.40;6.03;;;11.00;99.90;;;;;;4162202;28;20521;-52
2021/11/18 09:26:02;;;;;;;12.05;7.97;;;11.00;99.90;;;;;;4164290;28;20052;-52
2021/11/18 09:28:05;;;;;;;4.35;4.15;;;11.10;99.90;;;;;;4161688;28;20069;-52
2021/11/18 09:30:08;;;;;;;;;;;11.10;99.90;;;;;;4162620;28;20045;-52
2021/11/18 09:32:11;;;;;;;4.00;3.65;;;11.20;99.90;;;;;;4162855;28;19921;-52
2021/11/18 09:34:15;;;;;;;4.43;4.13;;;11.60;99.90;;;;;;4161427;28;20589;-52
2021/11/18 09:36:19;;;;;;;7.50;5.70;;;11.80;99.90;;;;;;4162014;28;20124;-53
2021/11/18 09:38:24;;;;;;;6.05;5.55;;;12.00;99.90;;;;;;4162212;28;20062;-53
2021/11/18 09:40:41;;;;;;;5.45;5.07;;;12.00;99.90;;;;;;4160525;28;20041;-53
2021/11/18 09:43:10;;;;;;;5.63;5.25;;;12.30;99.90;;;;;;4162314;28;20029;-51
2021/11/18 09:45:23;;;;;;;3.70;3.60;;;12.70;99.90;;;;;;4162967;28;20459;-52
2021/11/18 09:48:02;;;;;;;3.00;2.90;;;13.20;99.90;;;;;;4160421;28;20081;-53
2021/11/18 09:50:43;;;;;;;3.13;3.03;;;13.10;99.90;;;;;;4154490;28;20046;-54
2021/11/18 09:53:08;;;;;;;3.58;3.47;;;13.20;99.90;;;;;;4145120;28;20050;-54
2021/11/18 09:55:26;;;;;;;2.40;2.20;;;13.20;99.90;;;;;;4167627;28;20060;-53
2021/11/18 09:57:46;;;;;;;3.38;3.17;;;13.40;99.90;;;;;;4163338;28;20041;-52
2021/11/18 10:00:14;;;;;;;3.65;3.45;;;13.60;99.90;;;;;;4159920;28;20088;-52
2021/11/18 10:02:41;;;;;;;3.22;3.13;;;13.70;99.90;;;;;;4148349;28;20049;-53
2021/11/18 10:04:55;;;;;;;2.40;2.30;;;13.80;99.90;;;;;;4162827;28;20148;-52
2021/11/18 10:07:06;;;;;;;2.70;2.60;;;13.90;99.90;;;;;;4161714;28;20099;-54
2021/11/18 10:10:00;;;;;;;3.30;3.15;;;14.10;99.90;;;;;;4161923;28;20037;-54
2021/11/18 10:12:21;;;;;;;2.53;2.42;;;14.00;99.90;;;;;;4108867;28;20454;-52
2021/11/18 10:14:55;;;;;;;2.80;2.70;;;13.90;99.90;;;;;;4127326;28;20453;-53
2021/11/18 10:17:09;;;;;;;3.20;3.00;;;14.20;99.90;;;;;;4127838;28;20105;-53
2021/11/18 10:19:18;;;;;;;2.25;2.15;;;14.40;99.90;;;;;;4126023;28;20808;-53
2021/11/18 10:21:28;;;;;;;1.33;1.33;;;14.30;99.90;;;;;;4128075;28;20085;-52
2021/11/18 10:23:31;;;;;;;1.58;1.58;;;14.40;99.90;;;;;;4126182;28;20059;-53
2021/11/18 10:25:44;;;;;;;2.05;1.95;;;14.60;99.90;;;;;;4126304;28;20053;-53
2021/11/18 10:27:46;;;;;;;;;;;15.10;99.90;;;;;;4122382;28;20042;-53
2021/11/18 10:30:06;;;;;;;1.63;1.63;;;15.00;99.90;;;;;;4125755;28;19925;-53
2021/11/18 10:32:16;;;;;;;1.67;1.67;;;15.10;99.90;;;;;;4123362;28;20046;-52
2021/11/18 10:35:28;;;;;;;1.50;1.50;;;15.20;99.90;;;;;;4116815;28;20050;-53
2021/11/18 10:37:34;;;;;;;1.50;1.50;;;15.50;99.90;;;;;;4107334;28;20058;-54
2021/11/18 10:39:49;;;;;;;1.55;1.55;;;15.70;99.90;;;;;;4125129;28;20737;-54
2021/11/18 10:42:00;;;;;;;1.30;1.30;;;15.60;99.90;;;;;;4127996;28;20156;-53
2021/11/18 10:44:17;;;;;;;1.30;1.30;;;15.70;99.90;;;;;;4110366;28;20522;-50
2021/11/18 10:46:19;;;;;;;1.50;1.10;;;15.70;99.90;;;;;;4127729;28;20042;-54
2021/11/18 10:48:48;;;;;;;1.00;1.00;;;15.70;99.90;;;;;;4135724;28;20049;-54
2021/11/18 10:51:12;;;;;;;1.00;1.00;;;15.90;99.90;;;;;;4151729;28;20034;-53
2021/11/18 10:53:40;;;;;;;1.15;1.00;;;16.00;99.90;;;;;;4157395;28;20026;-54
2021/11/18 10:55:46;;;;;;;1.00;1.00;;;15.90;99.90;;;;;;4159583;28;20124;-53
2021/11/18 10:58:05;;;;;;;1.00;1.00;;;15.70;99.90;;;;;;4155975;28;20041;-53
2021/11/18 11:00:22;;;;;;;1.00;1.00;;;15.70;99.90;;;;;;4158155;28;20037;-54
2021/11/18 11:02:33;;;;;;;1.05;1.05;;;15.70;99.90;;;;;;4153521;28;20076;-54
2021/11/18 11:04:41;;;;;;;1.02;1.02;;;15.40;99.90;;;;;;4155885;28;20444;-53
2021/11/18 11:06:43;;;;;;;1.00;1.00;;;15.60;99.90;;;;;;4160798;28;20488;-54
2021/11/18 11:08:53;;;;;;;1.20;1.20;;;15.70;99.90;;;;;;4156439;28;20041;-54
2021/11/18 11:11:07;;;;;;;1.20;1.20;;;15.50;99.90;;;;;;4155649;28;20053;-53